createdAt,value
2023-05-06T00:02:22.078Z,8.60
2023-05-06T00:04:49.433Z,8.33
2023-05-06T00:07:17.111Z,9.13
2023-05-06T00:09:44.122Z,8.73
2023-05-06T00:12:11.283Z,8.13
2023-05-06T00:14:38.217Z,8.07
2023-05-06T00:17:05.238Z,7.20
2023-05-06T00:19:32.393Z,7.50
2023-05-06T00:21:59.459Z,7.23
2023-05-06T00:24:26.441Z,6.80
2023-05-06T00:26:53.759Z,6.30
2023-05-06T00:29:20.827Z,6.70
2023-05-06T00:31:47.742Z,6.80
2023-05-06T00:34:14.712Z,10.37
2023-05-06T00:36:42.898Z,6.70
2023-05-06T00:39:10.003Z,7.40
2023-05-06T00:41:37.144Z,7.00
2023-05-06T00:44:04.460Z,7.80
2023-05-06T00:46:31.352Z,7.80
2023-05-06T00:48:59.481Z,8.40
2023-05-06T00:51:26.972Z,7.73
2023-05-06T00:53:53.892Z,9.00
2023-05-06T00:56:20.977Z,10.67
2023-05-06T00:58:48.942Z,11.43
2023-05-06T01:01:16.049Z,11.77
2023-05-06T01:03:43.332Z,13.83
2023-05-06T01:06:37.820Z,12.83
2023-05-06T01:09:17.488Z,13.23
2023-05-06T01:12:12.041Z,12.23
2023-05-06T01:14:46.698Z,10.30
2023-05-06T01:17:18.612Z,10.40
2023-05-06T01:19:53.481Z,10.73
2023-05-06T01:22:21.527Z,9.57
2023-05-06T01:24:48.439Z,10.80
2023-05-06T01:27:17.232Z,10.83
2023-05-06T01:29:46.778Z,9.00
2023-05-06T01:32:21.080Z,8.93
2023-05-06T01:34:59.840Z,8.20
2023-05-06T01:37:45.773Z,8.80
2023-05-06T01:40:14.784Z,7.90
2023-05-06T01:42:44.600Z,8.73
2023-05-06T01:45:13.637Z,8.77
2023-05-06T01:47:41.726Z,8.63
2023-05-06T01:50:09.301Z,9.50
2023-05-06T01:52:36.146Z,9.97
2023-05-06T01:55:03.116Z,10.30
2023-05-06T01:57:29.990Z,8.73
2023-05-06T01:59:57.290Z,10.63
2023-05-06T02:02:24.361Z,10.00
2023-05-06T02:04:53.786Z,10.60
2023-05-06T02:07:21.097Z,11.00
2023-05-06T02:09:48.039Z,10.30
2023-05-06T02:12:14.995Z,9.63
2023-05-06T02:14:41.855Z,11.17
2023-05-06T02:17:08.736Z,10.07
2023-05-06T02:19:35.906Z,8.40
2023-05-06T02:22:03.612Z,9.30
2023-05-06T02:24:30.541Z,8.50
2023-05-06T02:26:58.008Z,8.10
2023-05-06T02:29:25.324Z,8.97
2023-05-06T02:31:52.384Z,7.83
2023-05-06T02:34:19.317Z,8.63
2023-05-06T02:36:46.153Z,10.20
2023-05-06T02:39:13.113Z,10.00
2023-05-06T02:41:39.954Z,11.37
2023-05-06T02:44:06.836Z,11.63
2023-05-06T02:46:34.633Z,12.10
2023-05-06T02:49:02.147Z,12.40
2023-05-06T02:51:29.329Z,12.20
2023-05-06T02:53:56.164Z,13.20
2023-05-06T02:56:23.065Z,14.10
2023-05-06T02:58:49.938Z,14.73
2023-05-06T03:01:16.839Z,14.43
2023-05-06T03:03:43.905Z,13.47
2023-05-06T03:06:10.973Z,13.20
2023-05-06T03:08:38.276Z,14.30
2023-05-06T03:11:06.794Z,12.20
2023-05-06T03:13:34.968Z,13.30
2023-05-06T03:16:03.010Z,13.03
2023-05-06T03:18:29.862Z,14.00
2023-05-06T03:20:56.802Z,13.63
2023-05-06T03:23:23.773Z,12.60
2023-05-06T03:25:50.722Z,12.20
2023-05-06T03:28:17.620Z,11.97
2023-05-06T03:30:45.010Z,13.10
2023-05-06T03:33:12.268Z,12.07
2023-05-06T03:35:40.324Z,13.03
2023-05-06T03:38:07.436Z,12.27
2023-05-06T03:40:34.878Z,13.70
2023-05-06T03:43:02.269Z,10.47
2023-05-06T03:45:29.130Z,12.33
2023-05-06T03:47:58.427Z,12.70
2023-05-06T03:50:25.572Z,12.10
2023-05-06T03:52:52.737Z,11.50
2023-05-06T03:55:19.988Z,12.30
2023-05-06T03:57:47.434Z,11.10
2023-05-06T04:00:14.634Z,13.00
2023-05-06T04:02:42.776Z,11.90
2023-05-06T04:05:10.304Z,12.90
2023-05-06T04:07:37.403Z,13.83
2023-05-06T04:10:04.832Z,11.83
2023-05-06T04:12:32.313Z,13.20
2023-05-06T04:14:59.175Z,11.83
2023-05-06T04:17:26.105Z,12.50
2023-05-06T04:19:54.031Z,13.17
2023-05-06T04:22:21.060Z,12.03
2023-05-06T04:24:48.228Z,11.90
2023-05-06T04:27:15.306Z,12.00
2023-05-06T04:29:42.250Z,11.60
2023-05-06T04:32:11.712Z,12.50
2023-05-06T04:34:39.128Z,12.50
2023-05-06T04:37:07.088Z,11.77
2023-05-06T04:39:34.287Z,12.37
2023-05-06T04:42:02.432Z,12.53
2023-05-06T04:44:29.472Z,11.03
2023-05-06T04:46:56.455Z,11.30
2023-05-06T04:49:23.364Z,12.57
2023-05-06T04:51:51.071Z,12.87
2023-05-06T04:54:18.033Z,12.43
2023-05-06T04:56:44.861Z,13.77
2023-05-06T04:59:11.742Z,13.30
2023-05-06T05:01:38.788Z,13.60
2023-05-06T05:04:05.852Z,13.50
2023-05-06T05:06:32.876Z,13.07
2023-05-06T05:09:00.005Z,12.93
2023-05-06T05:11:27.251Z,13.47
2023-05-06T05:13:56.043Z,14.37
2023-05-06T05:16:24.409Z,15.17
2023-05-06T05:18:52.086Z,14.63
2023-05-06T05:21:20.975Z,15.70
2023-05-06T05:23:48.412Z,14.47
2023-05-06T05:26:15.390Z,16.13
2023-05-06T05:28:43.581Z,16.10
2023-05-06T05:31:10.739Z,16.27
2023-05-06T05:33:37.699Z,15.63
2023-05-06T05:36:05.034Z,13.70
2023-05-06T05:38:32.289Z,16.70
2023-05-06T05:40:59.211Z,18.20
2023-05-06T05:43:27.469Z,17.00
2023-05-06T05:45:54.393Z,17.93
2023-05-06T05:48:21.293Z,18.70
2023-05-06T05:50:48.391Z,17.90
2023-05-06T05:53:15.776Z,20.23
2023-05-06T05:55:42.677Z,18.57
2023-05-06T05:58:11.758Z,19.43
2023-05-06T06:00:40.386Z,19.67
2023-05-06T06:03:07.693Z,20.70
2023-05-06T06:05:34.922Z,20.50
2023-05-06T06:08:03.787Z,19.77
2023-05-06T06:10:31.196Z,21.00
2023-05-06T06:12:58.145Z,21.37
2023-05-06T06:15:25.299Z,20.80
2023-05-06T06:17:55.720Z,21.00
2023-05-06T06:20:22.701Z,20.50
2023-05-06T06:22:49.842Z,23.13
2023-05-06T06:25:16.886Z,21.83
2023-05-06T06:27:44.057Z,24.90
2023-05-06T06:30:11.405Z,23.03
2023-05-06T06:32:48.478Z,23.40
2023-05-06T06:35:15.730Z,25.20
2023-05-06T06:37:42.712Z,22.93
2023-05-06T06:40:10.687Z,24.70
2023-05-06T06:42:37.995Z,24.00
2023-05-06T06:45:06.037Z,23.80
2023-05-06T06:47:33.134Z,22.57
2023-05-06T06:49:59.961Z,23.80
2023-05-06T06:52:27.091Z,22.93
2023-05-06T06:54:53.908Z,23.10
2023-05-06T06:57:21.087Z,23.37
2023-05-06T06:59:49.542Z,21.37
2023-05-06T07:02:16.456Z,21.43
2023-05-06T07:04:43.969Z,21.33
2023-05-06T07:07:14.220Z,19.03
2023-05-06T07:09:41.325Z,18.67
2023-05-06T07:12:08.233Z,17.10
2023-05-06T07:14:35.256Z,17.53
2023-05-06T07:17:02.877Z,16.73
2023-05-06T07:19:31.489Z,16.20
2023-05-06T07:21:58.477Z,15.27
2023-05-06T07:24:25.536Z,12.87
2023-05-06T07:26:52.372Z,12.40
2023-05-06T07:29:19.240Z,12.60
2023-05-06T07:31:46.229Z,11.50
2023-05-06T07:34:13.161Z,12.77
2023-05-06T07:36:43.520Z,11.77
2023-05-06T07:39:11.143Z,10.60
2023-05-06T07:41:38.176Z,10.40
2023-05-06T07:44:06.379Z,9.87
2023-05-06T07:46:33.732Z,10.90
2023-05-06T07:49:00.739Z,10.30
2023-05-06T07:51:28.264Z,10.80
2023-05-06T07:53:55.113Z,10.40
2023-05-06T07:56:21.940Z,10.27
2023-05-06T07:58:49.593Z,9.03
2023-05-06T08:01:16.734Z,9.07
2023-05-06T08:03:44.065Z,8.83
2023-05-06T08:06:11.133Z,8.80
2023-05-06T08:08:38.286Z,9.13
2023-05-06T08:11:05.265Z,8.20
2023-05-06T08:13:33.549Z,8.40
2023-05-06T08:16:02.471Z,8.03
2023-05-06T08:18:30.065Z,8.23
2023-05-06T08:20:57.000Z,9.20
2023-05-06T08:23:24.065Z,8.07
2023-05-06T08:25:51.175Z,8.37
2023-05-06T08:28:18.110Z,6.80
2023-05-06T08:30:47.712Z,6.87
2023-05-06T08:33:14.771Z,7.50
2023-05-06T08:35:42.233Z,7.37
2023-05-06T08:38:09.089Z,6.30
2023-05-06T08:40:43.665Z,6.50
2023-05-06T08:43:14.707Z,6.33
2023-05-06T08:45:42.852Z,7.10
2023-05-06T08:48:09.830Z,6.77
2023-05-06T08:50:42.133Z,6.87
2023-05-06T08:53:13.454Z,6.37
2023-05-06T08:55:44.464Z,6.13
2023-05-06T08:58:15.786Z,6.60
2023-05-06T09:00:44.065Z,6.00
2023-05-06T09:03:11.131Z,5.60
2023-05-06T09:05:38.367Z,5.30
2023-05-06T09:08:05.505Z,5.57
2023-05-06T09:10:37.922Z,5.00
2023-05-06T09:13:05.024Z,6.47
2023-05-06T09:15:43.863Z,5.10
2023-05-06T09:18:11.837Z,4.77
2023-05-06T09:20:47.331Z,5.17
2023-05-06T09:23:16.504Z,4.60
2023-05-06T09:25:46.822Z,5.90
2023-05-06T09:28:14.546Z,5.77
2023-05-06T09:30:43.645Z,6.30
2023-05-06T09:33:12.023Z,4.70
2023-05-06T09:35:43.939Z,5.50
2023-05-06T09:38:10.976Z,5.90
2023-05-06T09:40:38.941Z,6.20
2023-05-06T09:43:06.170Z,5.63
2023-05-06T09:45:34.863Z,5.57
2023-05-06T09:48:02.651Z,5.00
2023-05-06T09:50:29.506Z,5.03
2023-05-06T09:52:56.675Z,5.50
2023-05-06T09:55:26.887Z,4.30
2023-05-06T09:57:54.760Z,3.23
2023-05-06T10:00:27.980Z,4.80
2023-05-06T10:02:55.356Z,5.23
2023-05-06T10:05:24.922Z,4.80
2023-05-06T10:07:53.741Z,3.63
2023-05-06T10:10:22.342Z,3.70
2023-05-06T10:12:51.542Z,4.77
2023-05-06T10:15:18.405Z,3.77
2023-05-06T10:17:48.399Z,4.20
2023-05-06T10:20:16.467Z,3.90
2023-05-06T10:22:59.543Z,4.10
2023-05-06T10:25:36.495Z,3.40
2023-05-06T10:28:22.245Z,4.53
2023-05-06T10:30:55.894Z,4.40
2023-05-06T10:33:24.292Z,4.70
2023-05-06T10:36:01.248Z,4.87
2023-05-06T10:38:37.647Z,2.90
2023-05-06T10:41:04.964Z,2.73
2023-05-06T10:43:34.186Z,2.90
2023-05-06T10:46:05.204Z,2.10
2023-05-06T10:48:32.940Z,1.70
2023-05-06T10:51:23.443Z,2.33
2023-05-06T10:54:04.484Z,2.80
2023-05-06T10:56:32.638Z,1.93
2023-05-06T10:59:09.889Z,2.00
2023-05-06T11:01:44.556Z,2.17
2023-05-06T11:04:16.032Z,1.83
2023-05-06T11:06:46.285Z,1.83
2023-05-06T11:09:18.097Z,1.80
2023-05-06T11:11:49.483Z,2.73
2023-05-06T11:14:27.591Z,2.97
2023-05-06T11:16:58.600Z,2.23
2023-05-06T11:19:27.811Z,2.47
2023-05-06T11:21:57.597Z,2.43
2023-05-06T11:24:29.513Z,2.70
2023-05-06T11:26:58.440Z,1.93
2023-05-06T11:29:26.006Z,1.87
2023-05-06T11:31:54.086Z,2.40
2023-05-06T11:34:29.467Z,2.70
2023-05-06T11:37:04.214Z,2.80
2023-05-06T11:39:38.791Z,1.90
2023-05-06T11:42:08.605Z,1.50
2023-05-06T11:44:37.406Z,2.87
2023-05-06T11:47:06.807Z,2.80
2023-05-06T11:49:41.681Z,3.17
2023-05-06T11:52:10.826Z,2.30
2023-05-06T11:54:42.797Z,2.10
2023-05-06T11:57:10.164Z,1.87
2023-05-06T11:59:39.846Z,1.63
2023-05-06T12:02:09.827Z,1.80
2023-05-06T12:04:41.390Z,1.80
2023-05-06T12:07:09.707Z,2.07
2023-05-06T12:09:38.453Z,2.20
2023-05-06T12:12:06.560Z,2.10
2023-05-06T12:14:33.790Z,2.03
2023-05-06T12:17:00.999Z,2.13
2023-05-06T12:19:29.554Z,2.10
2023-05-06T12:21:57.242Z,1.97
2023-05-06T12:24:30.111Z,1.90
2023-05-06T12:26:57.020Z,2.20
2023-05-06T12:29:23.953Z,2.00
2023-05-06T12:32:08.639Z,1.63
2023-05-06T12:34:40.774Z,2.20
2023-05-06T12:37:11.249Z,2.13
2023-05-06T12:39:39.668Z,2.00
2023-05-06T12:42:06.919Z,2.20
2023-05-06T12:44:39.294Z,2.60
2023-05-06T12:47:32.851Z,3.03
2023-05-06T12:50:00.869Z,2.73
2023-05-06T12:52:30.095Z,2.50
2023-05-06T12:54:57.725Z,2.50
2023-05-06T12:57:24.695Z,2.73
2023-05-06T12:59:51.614Z,2.43
2023-05-06T13:02:19.066Z,2.83
2023-05-06T13:04:47.099Z,2.87
2023-05-06T13:07:14.082Z,2.47
2023-05-06T13:09:41.311Z,2.50
2023-05-06T13:12:08.339Z,2.60
2023-05-06T13:14:36.848Z,2.53
2023-05-06T13:17:06.750Z,3.20
2023-05-06T13:19:34.242Z,2.90
2023-05-06T13:22:01.873Z,3.77
2023-05-06T13:24:29.868Z,2.97
2023-05-06T13:26:57.502Z,2.83
2023-05-06T13:29:24.856Z,2.80
2023-05-06T13:31:52.386Z,2.33
2023-05-06T13:34:19.421Z,2.40
2023-05-06T13:36:49.036Z,2.87
2023-05-06T13:39:16.260Z,3.47
2023-05-06T13:41:46.480Z,3.37
2023-05-06T13:44:14.510Z,2.63
2023-05-06T13:46:46.078Z,2.90
2023-05-06T13:49:14.634Z,2.60
2023-05-06T13:51:41.552Z,26.23
2023-05-06T13:54:08.410Z,2.67
2023-05-06T13:56:35.487Z,2.23
2023-05-06T13:59:02.331Z,3.00
2023-05-06T14:01:29.238Z,2.40
2023-05-06T14:03:56.151Z,2.87
2023-05-06T14:06:23.918Z,2.20
2023-05-06T14:08:50.742Z,2.60
2023-05-06T14:11:17.630Z,2.37
2023-05-06T14:13:44.477Z,3.83
2023-05-06T14:16:11.371Z,3.20
2023-05-06T14:18:38.232Z,2.83
2023-05-06T14:21:05.259Z,3.00
2023-05-06T14:23:32.524Z,2.63
2023-05-06T14:25:59.959Z,2.27
2023-05-06T14:28:26.929Z,2.60
2023-05-06T14:30:54.230Z,2.80
2023-05-06T14:33:23.295Z,2.20
2023-05-06T14:35:52.680Z,3.40
2023-05-06T14:38:20.026Z,2.57
2023-05-06T14:40:47.188Z,3.00
2023-05-06T14:43:14.070Z,3.03
2023-05-06T14:45:41.520Z,2.97
2023-05-06T14:48:08.476Z,3.17
2023-05-06T14:50:35.389Z,2.50
2023-05-06T14:53:03.723Z,2.93
2023-05-06T14:55:31.007Z,2.33
2023-05-06T14:57:57.853Z,2.07
2023-05-06T15:00:25.033Z,2.20
2023-05-06T15:02:52.090Z,3.33
2023-05-06T15:05:19.062Z,2.90
2023-05-06T15:07:46.341Z,2.53
2023-05-06T15:10:13.277Z,2.43
2023-05-06T15:12:40.514Z,2.50
2023-05-06T15:15:08.327Z,2.43
2023-05-06T15:17:35.682Z,1.93
2023-05-06T15:20:02.644Z,2.00
2023-05-06T15:22:29.598Z,1.90
2023-05-06T15:24:56.470Z,2.67
2023-05-06T15:27:23.984Z,2.10
2023-05-06T15:29:50.847Z,1.90
2023-05-06T15:32:17.722Z,2.10
2023-05-06T15:34:44.595Z,2.80
2023-05-06T15:37:12.100Z,2.07
2023-05-06T15:39:39.178Z,2.50
2023-05-06T15:42:06.381Z,2.00
2023-05-06T15:44:33.979Z,1.83
2023-05-06T15:47:00.936Z,2.00
2023-05-06T15:52:00.651Z,2.23
2023-05-06T15:54:30.303Z,2.00
2023-05-06T15:56:58.654Z,1.90
2023-05-06T15:59:26.912Z,1.73
2023-05-06T16:04:24.503Z,1.83
2023-05-06T16:06:51.620Z,1.77
2023-05-06T16:09:18.582Z,2.00
2023-05-06T16:11:45.696Z,1.87
2023-05-06T16:14:13.097Z,2.00
2023-05-06T16:16:39.990Z,2.37
2023-05-06T16:19:09.957Z,2.10
2023-05-06T16:21:37.479Z,2.00
2023-05-06T16:24:04.537Z,2.07
2023-05-06T16:26:31.592Z,2.20
2023-05-06T16:28:59.577Z,1.80
2023-05-06T16:31:26.899Z,2.47
2023-05-06T16:33:53.880Z,2.10
2023-05-06T16:36:20.909Z,2.30
2023-05-06T16:38:58.017Z,2.40
2023-05-06T16:41:25.711Z,2.50
2023-05-06T16:43:52.569Z,2.43
2023-05-06T16:46:20.569Z,2.30
2023-05-06T16:48:49.043Z,2.77
2023-05-06T16:51:16.466Z,1.83
2023-05-06T16:53:43.439Z,2.00
2023-05-06T16:56:10.761Z,2.00
2023-05-06T16:58:37.725Z,2.10
2023-05-06T17:01:07.960Z,2.23
2023-05-06T17:03:37.902Z,2.33
2023-05-06T17:06:05.200Z,1.90
2023-05-06T17:08:36.145Z,1.63
2023-05-06T17:11:06.868Z,1.97
2023-05-06T17:13:34.308Z,1.80
2023-05-06T17:16:01.305Z,1.50
2023-05-06T17:18:28.500Z,1.60
2023-05-06T17:20:56.969Z,1.60
2023-05-06T17:23:24.436Z,1.80
2023-05-06T17:25:51.956Z,2.20
2023-05-06T17:28:19.133Z,2.10
2023-05-06T17:30:46.598Z,1.83
2023-05-06T17:33:14.088Z,1.67
2023-05-06T17:35:41.061Z,1.63
2023-05-06T17:38:08.340Z,1.60
2023-05-06T17:40:35.450Z,1.90
2023-05-06T17:43:02.886Z,2.20
2023-05-06T17:45:30.270Z,2.20
2023-05-06T17:47:57.202Z,1.93
2023-05-06T17:50:24.206Z,1.60
2023-05-06T17:52:52.983Z,1.93
2023-05-06T17:55:21.787Z,1.50
2023-05-06T17:57:49.436Z,1.70
2023-05-06T18:00:17.354Z,2.50
2023-05-06T18:02:45.168Z,1.70
2023-05-06T18:05:13.509Z,1.80
2023-05-06T18:07:41.258Z,1.67
2023-05-06T18:10:08.755Z,1.60
2023-05-06T18:12:36.256Z,2.20
2023-05-06T18:15:03.350Z,1.83
2023-05-06T18:17:30.266Z,1.70
2023-05-06T18:19:57.419Z,1.70
2023-05-06T18:22:24.419Z,1.77
2023-05-06T18:24:55.551Z,1.97
2023-05-06T18:27:23.081Z,1.97
2023-05-06T18:29:50.422Z,2.10
2023-05-06T18:32:18.335Z,2.17
2023-05-06T18:34:45.348Z,2.30
2023-05-06T18:37:12.233Z,2.07
2023-05-06T18:39:42.706Z,1.97
2023-05-06T18:42:09.906Z,1.90
2023-05-06T18:44:37.397Z,2.00
2023-05-06T18:47:04.374Z,2.17
2023-05-06T18:49:31.487Z,2.03
2023-05-06T18:51:58.406Z,1.77
2023-05-06T18:54:25.345Z,2.43
2023-05-06T18:56:52.325Z,2.40
2023-05-06T18:59:22.415Z,1.90
2023-05-06T19:01:49.253Z,1.90
2023-05-06T19:04:16.301Z,2.27
2023-05-06T19:06:43.275Z,2.47
2023-05-06T19:09:11.281Z,2.20
2023-05-06T19:11:38.688Z,1.90
2023-05-06T19:14:05.645Z,1.97
2023-05-06T19:16:32.556Z,2.50
2023-05-06T19:18:59.822Z,2.30
2023-05-06T19:21:26.733Z,2.10
2023-05-06T19:24:00.029Z,2.33
2023-05-06T19:26:30.070Z,1.80
2023-05-06T19:28:56.912Z,2.67
2023-05-06T19:31:23.834Z,2.40
2023-05-06T19:33:50.743Z,2.40
2023-05-06T19:36:17.667Z,2.10
2023-05-06T19:38:44.514Z,2.10
2023-05-06T19:41:11.524Z,2.13
2023-05-06T19:43:43.004Z,2.73
2023-05-06T19:46:11.055Z,3.27
2023-05-06T19:48:39.082Z,4.00
2023-05-06T19:51:06.668Z,4.30
2023-05-06T19:53:34.201Z,3.90
2023-05-06T19:56:14.468Z,3.60
2023-05-06T19:58:41.508Z,3.70
2023-05-06T20:01:09.287Z,3.70
2023-05-06T20:03:37.085Z,4.17
2023-05-06T20:06:04.275Z,4.43
2023-05-06T20:08:31.266Z,3.60
2023-05-06T20:10:58.260Z,4.30
2023-05-06T20:13:25.927Z,4.30
2023-05-06T20:15:54.872Z,4.10
2023-05-06T20:18:22.085Z,5.10
2023-05-06T20:20:48.953Z,4.97
2023-05-06T20:23:16.059Z,4.37
2023-05-06T20:25:43.052Z,4.90
2023-05-06T20:28:09.939Z,4.53
2023-05-06T20:30:38.335Z,4.87
2023-05-06T20:33:06.078Z,5.50
2023-05-06T20:35:38.166Z,5.53
2023-05-06T20:38:06.539Z,5.60
2023-05-06T20:40:35.953Z,5.80
2023-05-06T20:43:03.010Z,4.90
2023-05-06T20:45:31.119Z,7.43
2023-05-06T20:47:58.365Z,5.40
2023-05-06T20:50:25.801Z,5.40
2023-05-06T20:52:54.352Z,6.33
2023-05-06T20:55:23.313Z,6.20
2023-05-06T20:57:50.807Z,6.67
2023-05-06T21:00:18.770Z,6.80
2023-05-06T21:02:45.832Z,6.67
2023-05-06T21:05:13.277Z,7.20
2023-05-06T21:07:40.584Z,7.77
2023-05-06T21:10:07.802Z,7.90
2023-05-06T21:12:34.797Z,7.53
2023-05-06T21:15:02.467Z,7.73
2023-05-06T21:17:29.393Z,7.73
2023-05-06T21:19:56.613Z,7.47
2023-05-06T21:22:24.337Z,8.10
2023-05-06T21:24:52.051Z,7.80
2023-05-06T21:27:18.950Z,7.63
2023-05-06T21:29:45.798Z,7.60
2023-05-06T21:32:12.693Z,7.90
2023-05-06T21:34:39.884Z,8.07
2023-05-06T21:37:06.809Z,7.83
2023-05-06T21:39:33.747Z,7.87
2023-05-06T21:42:00.826Z,8.50
2023-05-06T21:44:28.032Z,8.00
2023-05-06T21:46:54.982Z,7.60
2023-05-06T21:49:22.650Z,7.70
2023-05-06T21:51:49.543Z,8.07
2023-05-06T21:54:17.538Z,8.40
2023-05-06T21:56:44.934Z,8.30
2023-05-06T21:59:11.879Z,8.10
2023-05-06T22:01:39.136Z,8.17
2023-05-06T22:04:11.366Z,8.57
2023-05-06T22:06:39.589Z,7.73
2023-05-06T22:09:09.429Z,8.50
2023-05-06T22:11:38.355Z,7.90
2023-05-06T22:14:06.505Z,8.60
2023-05-06T22:16:35.400Z,8.20
2023-05-06T22:19:03.792Z,9.63
2023-05-06T22:21:34.156Z,8.87
2023-05-06T22:24:01.678Z,8.87
2023-05-06T22:26:28.946Z,8.90
2023-05-06T22:28:56.958Z,9.00
2023-05-06T22:31:24.677Z,9.20
2023-05-06T22:33:55.274Z,9.87
2023-05-06T22:36:22.285Z,10.00
2023-05-06T22:38:49.271Z,8.70
2023-05-06T22:41:18.825Z,8.53
2023-05-06T22:43:45.844Z,8.90
2023-05-06T22:46:12.973Z,8.70
2023-05-06T22:48:40.637Z,9.40
2023-05-06T22:51:07.875Z,9.87
2023-05-06T22:53:34.758Z,10.50
2023-05-06T22:56:01.941Z,10.90
2023-05-06T22:58:29.704Z,10.67
2023-05-06T23:00:56.749Z,9.70
2023-05-06T23:03:23.734Z,9.93
2023-05-06T23:05:51.027Z,10.03
2023-05-06T23:08:17.911Z,10.17
2023-05-06T23:10:45.172Z,10.30
2023-05-06T23:13:12.272Z,10.77
2023-05-06T23:15:39.941Z,9.90
2023-05-06T23:18:07.496Z,10.43
2023-05-06T23:20:34.377Z,10.27
2023-05-06T23:23:01.377Z,10.67
2023-05-06T23:25:28.354Z,10.40
2023-05-06T23:27:55.359Z,9.93
2023-05-06T23:30:22.416Z,10.37
2023-05-06T23:32:49.313Z,10.57
2023-05-06T23:35:16.448Z,9.70
2023-05-06T23:37:43.405Z,11.23
2023-05-06T23:40:12.662Z,10.40
2023-05-06T23:42:40.033Z,10.30
2023-05-06T23:45:07.737Z,11.53
2023-05-06T23:47:34.894Z,10.60
2023-05-06T23:50:01.904Z,10.27
2023-05-06T23:52:28.938Z,10.10
2023-05-06T23:54:55.858Z,9.80
2023-05-06T23:57:22.957Z,9.47
2023-05-06T23:59:49.798Z,10.47
